This is the latest recevied weather packets stored in our database for station/object EA5CEE. If no packets are shown the sender has not sent any weather packets the latest 1 day(s).
| Time | Temp. | Humidity | Pressure | Rain* | Wind** | Luminosity | Snow |
|---|---|---|---|---|---|---|---|
| 1777976121 | 20° C | 76% | 1010.7 hPa | 0 mm | 3.13 m/s, 120° | - | - |
| 1777975209 | 20° C | 77% | 1010.7 hPa | 0 mm | 2.24 m/s, 92° | - | - |
| 1777974308 | 20° C | 76% | 1010.8 hPa | 0 mm | 2.24 m/s, 121° | - | - |
| 1777973406 | 20.56° C | 74% | 1010.8 hPa | 0 mm | 2.24 m/s, 120° | - | - |
| 1777972506 | 20.56° C | 73% | 1010.8 hPa | 0 mm | 1.79 m/s, 87° | - | - |
| 1777971605 | 20° C | 77% | 1010.8 hPa | 0 mm | 1.34 m/s, 103° | - | - |
| 1777970708 | 20.56° C | 76% | 1010.9 hPa | 0 mm | 1.34 m/s, 110° | - | - |
| 1777969803 | 20° C | 76% | 1010.9 hPa | 0 mm | 1.34 m/s, 63° | - | - |
| 1777968901 | 20.56° C | 74% | 1010.9 hPa | 0 mm | 1.34 m/s, 118° | - | - |
| 1777968061 | 20.56° C | 60% | 1010.8 hPa | 0 mm | 0.45 m/s, 265° | - | - |
| 1777967156 | 19.44° C | 62% | 1010.8 hPa | 0 mm | 0 m/s | - | - |
| 1777966257 | 19.44° C | 55% | 1010.7 hPa | 0 mm | 0 m/s | - | - |
| 1777965352 | 18.89° C | 63% | 1010.7 hPa | 0 mm | 0.45 m/s, 231° | - | - |
| 1777964461 | 18.33° C | 72% | 1010.6 hPa | 0 mm | 0.45 m/s, 221° | - | - |
| 1777963554 | 17.78° C | 81% | 1010.7 hPa | 0 mm | 0.45 m/s, 212° | - | - |
| 1777962644 | 17.78° C | 86% | 1010.6 hPa | 0 mm | 0 m/s | - | - |
| 1777961769 | 16.67° C | 84% | 1010.4 hPa | 0 mm | 0 m/s | - | - |
| 1777960851 | 16.67° C | 87% | 1010.3 hPa | 0 mm | 0.45 m/s, 255° | - | - |
| 1777959948 | 16.67° C | 90% | 1010.2 hPa | 0 mm | 0.45 m/s, 278° | - | - |
| 1777959042 | 17.22° C | 90% | 1010.2 hPa | 0 mm | 0 m/s | - | - |
| 1777958141 | 16.67° C | 88% | 1010.1 hPa | 0 mm | 0 m/s | - | - |
| 1777957239 | 16.67° C | 79% | 1010 hPa | 0 mm | 0 m/s | - | - |
* Rain latest hour (hover to see other rain measurements)
** Current wind speed in m/s (hover to see current wind gust speed)